Time;durP1;ratioP1;P1;durP2;ratioP2;P2;SDS_P1;SDS_P2;PMS_P1;PMS_P2;Temp;Humidity;BMP_temperature;BMP_pressure;BME280_temperature;BME280_humidity;BME280_pressure;Samples;Min_cycle;Max_cycle;Signal;HPM_P1;HPM_P2
2021/10/06 00:02:01;;;;;;;1.7;0.5;;;;;;;;;;;;;
2021/10/06 00:04:27;;;;;;;0.4;0.4;;;;;;;;;;;;;
2021/10/06 00:06:52;;;;;;;0.8;0.4;;;;;;;;;;;;;
2021/10/06 00:09:17;;;;;;;0.4;0.4;;;;;;;;;;;;;
2021/10/06 00:11:42;;;;;;;0.6;0.3;;;;;;;;;;;;;
2021/10/06 00:14:07;;;;;;;1;0.4;;;;;;;;;;;;;
2021/10/06 00:16:32;;;;;;;0.3;0.3;;;;;;;;;;;;;
2021/10/06 00:18:57;;;;;;;0.7;0.4;;;;;;;;;;;;;
2021/10/06 00:21:23;;;;;;;0.2;0.2;;;;;;;;;;;;;
2021/10/06 00:23:57;;;;;;;0.3;0.3;;;;;;;;;;;;;
2021/10/06 00:26:13;;;;;;;0.7;0.4;;;;;;;;;;;;;
2021/10/06 00:28:38;;;;;;;0.4;0.3;;;;;;;;;;;;;
2021/10/06 00:31:04;;;;;;;0.3;0.3;;;;;;;;;;;;;
2021/10/06 00:33:48;;;;;;;0.4;0.3;;;;;;;;;;;;;
2021/10/06 00:36:13;;;;;;;0.3;0.3;;;;;;;;;;;;;
2021/10/06 00:38:39;;;;;;;0.6;0.3;;;;;;;;;;;;;
2021/10/06 00:41:04;;;;;;;0.4;0.3;;;;;;;;;;;;;
2021/10/06 00:43:28;;;;;;;0.2;0.2;;;;;;;;;;;;;
2021/10/06 00:45:53;;;;;;;1;0.4;;;;;;;;;;;;;
2021/10/06 00:48:19;;;;;;;0.4;0.3;;;;;;;;;;;;;
2021/10/06 00:50:44;;;;;;;0.3;0.3;;;;;;;;;;;;;
2021/10/06 00:53:09;;;;;;;0.8;0.3;;;;;;;;;;;;;
2021/10/06 00:55:34;;;;;;;0.6;0.4;;;;;;;;;;;;;
2021/10/06 00:57:59;;;;;;;0.2;0.2;;;;;;;;;;;;;
2021/10/06 01:00:24;;;;;;;0.4;0.3;;;;;;;;;;;;;
2021/10/06 01:02:49;;;;;;;0.3;0.3;;;;;;;;;;;;;
2021/10/06 01:05:14;;;;;;;0.8;0.2;;;;;;;;;;;;;
2021/10/06 01:07:39;;;;;;;0.2;0.2;;;;;;;;;;;;;
2021/10/06 01:10:04;;;;;;;0.3;0.3;;;;;;;;;;;;;
2021/10/06 01:12:30;;;;;;;0.3;0.3;;;;;;;;;;;;;
2021/10/06 01:14:55;;;;;;;0.4;0.3;;;;;;;;;;;;;
2021/10/06 01:17:52;;;;;;;0.6;0.3;;;;;;;;;;;;;
2021/10/06 01:20:17;;;;;;;1.1;0.3;;;;;;;;;;;;;
2021/10/06 01:22:42;;;;;;;0.8;0.4;;;;;;;;;;;;;
2021/10/06 01:25:07;;;;;;;1.7;0.5;;;;;;;;;;;;;
2021/10/06 01:27:32;;;;;;;0.2;0.2;;;;;;;;;;;;;
2021/10/06 01:29:58;;;;;;;0.9;0.4;;;;;;;;;;;;;
2021/10/06 01:32:23;;;;;;;0.4;0.4;;;;;;;;;;;;;
2021/10/06 01:34:48;;;;;;;1.2;0.5;;;;;;;;;;;;;
2021/10/06 01:37:13;;;;;;;0.5;0.4;;;;;;;;;;;;;
2021/10/06 01:39:38;;;;;;;0.5;0.5;;;;;;;;;;;;;
2021/10/06 01:42:04;;;;;;;0.7;0.5;;;;;;;;;;;;;
2021/10/06 01:44:29;;;;;;;0.2;0.2;;;;;;;;;;;;;
2021/10/06 01:46:54;;;;;;;0.9;0.5;;;;;;;;;;;;;
2021/10/06 01:49:19;;;;;;;0.7;0.3;;;;;;;;;;;;;
2021/10/06 01:51:44;;;;;;;1.2;0.5;;;;;;;;;;;;;
2021/10/06 01:54:10;;;;;;;0.4;0.4;;;;;;;;;;;;;
2021/10/06 01:56:35;;;;;;;1.9;0.4;;;;;;;;;;;;;
2021/10/06 01:59:03;;;;;;;1.3;0.5;;;;;;;;;;;;;
2021/10/06 02:01:28;;;;;;;1.1;0.5;;;;;;;;;;;;;
2021/10/06 02:03:53;;;;;;;0.4;0.3;;;;;;;;;;;;;
2021/10/06 02:06:18;;;;;;;1.4;0.7;;;;;;;;;;;;;
2021/10/06 02:08:44;;;;;;;0.7;0.4;;;;;;;;;;;;;
2021/10/06 02:11:09;;;;;;;0.8;0.5;;;;;;;;;;;;;
2021/10/06 02:13:34;;;;;;;0.4;0.4;;;;;;;;;;;;;
2021/10/06 02:15:59;;;;;;;0.4;0.3;;;;;;;;;;;;;
2021/10/06 02:18:24;;;;;;;1;0.5;;;;;;;;;;;;;
2021/10/06 02:21:12;;;;;;;0.8;0.5;;;;;;;;;;;;;
2021/10/06 02:23:37;;;;;;;1.2;0.5;;;;;;;;;;;;;
2021/10/06 02:26:02;;;;;;;0.9;0.5;;;;;;;;;;;;;
2021/10/06 02:28:27;;;;;;;1.4;0.5;;;;;;;;;;;;;
2021/10/06 02:30:53;;;;;;;1;0.6;;;;;;;;;;;;;
2021/10/06 02:33:18;;;;;;;1.5;0.5;;;;;;;;;;;;;
2021/10/06 02:35:43;;;;;;;0.5;0.4;;;;;;;;;;;;;
2021/10/06 02:38:08;;;;;;;0.6;0.5;;;;;;;;;;;;;
2021/10/06 02:40:33;;;;;;;0.7;0.4;;;;;;;;;;;;;
2021/10/06 02:42:58;;;;;;;1.4;0.5;;;;;;;;;;;;;
2021/10/06 02:45:23;;;;;;;1.2;0.4;;;;;;;;;;;;;
2021/10/06 02:47:48;;;;;;;0.3;0.2;;;;;;;;;;;;;
2021/10/06 02:50:14;;;;;;;2.6;0.5;;;;;;;;;;;;;
2021/10/06 02:52:39;;;;;;;1.2;0.5;;;;;;;;;;;;;
2021/10/06 02:55:04;;;;;;;0.7;0.5;;;;;;;;;;;;;
2021/10/06 02:57:29;;;;;;;0.4;0.4;;;;;;;;;;;;;
2021/10/06 02:59:57;;;;;;;1.5;0.4;;;;;;;;;;;;;
2021/10/06 03:02:22;;;;;;;1.1;0.6;;;;;;;;;;;;;
2021/10/06 03:04:47;;;;;;;1.4;0.4;;;;;;;;;;;;;
2021/10/06 03:07:12;;;;;;;0.9;0.5;;;;;;;;;;;;;
2021/10/06 03:09:38;;;;;;;0.8;0.4;;;;;;;;;;;;;
2021/10/06 03:12:03;;;;;;;1.8;0.5;;;;;;;;;;;;;
2021/10/06 03:14:28;;;;;;;0.7;0.5;;;;;;;;;;;;;
2021/10/06 03:16:53;;;;;;;0.5;0.4;;;;;;;;;;;;;
2021/10/06 03:19:18;;;;;;;1.1;0.4;;;;;;;;;;;;;
2021/10/06 03:21:43;;;;;;;0.5;0.4;;;;;;;;;;;;;
2021/10/06 03:24:08;;;;;;;0.6;0.5;;;;;;;;;;;;;
2021/10/06 03:26:34;;;;;;;0.5;0.4;;;;;;;;;;;;;
2021/10/06 03:28:59;;;;;;;0.5;0.5;;;;;;;;;;;;;
2021/10/06 03:31:24;;;;;;;1.6;0.6;;;;;;;;;;;;;
2021/10/06 03:33:49;;;;;;;0.5;0.5;;;;;;;;;;;;;
2021/10/06 03:36:14;;;;;;;1.5;0.6;;;;;;;;;;;;;
2021/10/06 03:38:39;;;;;;;0.9;0.5;;;;;;;;;;;;;
2021/10/06 03:41:05;;;;;;;1.8;0.6;;;;;;;;;;;;;
2021/10/06 03:43:30;;;;;;;1.1;0.6;;;;;;;;;;;;;
2021/10/06 03:45:55;;;;;;;0.9;0.6;;;;;;;;;;;;;
2021/10/06 03:48:20;;;;;;;2.3;0.7;;;;;;;;;;;;;
2021/10/06 03:50:46;;;;;;;1.4;0.9;;;;;;;;;;;;;
2021/10/06 03:53:11;;;;;;;0.9;0.9;;;;;;;;;;;;;
2021/10/06 03:55:37;;;;;;;2.2;0.7;;;;;;;;;;;;;
2021/10/06 03:58:02;;;;;;;1.4;0.9;;;;;;;;;;;;;
2021/10/06 04:02:31;;;;;;;1.4;0.8;;;;;;;10.91;92.15234;938.902;;;;
2021/10/06 04:04:56;;;;;;;1.1;0.9;;;;;;;10.91;92.7002;938.9316;;;;
2021/10/06 04:07:23;;;;;;;0.7;0.6;;;;;;;10.65;93.96973;938.8716;;;;
2021/10/06 04:09:48;;;;;;;0.6;0.5;;;;;;;10.73;93.25586;938.9742;;;;
2021/10/06 04:12:14;;;;;;;2.4;2.2;;;;;;;10.75;93.5;938.9855;;;;
2021/10/06 04:14:39;;;;;;;0.7;0.7;;;;;;;10.78;93.4043;938.9675;;;;
2021/10/06 04:17:07;;;;;;;1;0.7;;;;;;;10.74;93.15527;939.0865;;;;
2021/10/06 04:19:32;;;;;;;2.3;0.6;;;;;;;10.64;93.31445;939.0115;;;;
2021/10/06 04:21:57;;;;;;;0.9;0.8;;;;;;;10.72;93.56055;939.1039;;;;
2021/10/06 04:24:24;;;;;;;1.6;1.5;;;;;;;10.63;93.9541;939.1205;;;;
2021/10/06 04:26:49;;;;;;;1.6;1.2;;;;;;;10.65;93.72949;939.1502;;;;
2021/10/06 04:29:17;;;;;;;1.7;1.6;;;;;;;10.75;93.44043;939.1727;;;;
2021/10/06 04:31:42;;;;;;;2.4;2.2;;;;;;;10.9;92.83398;939.2246;;;;
2021/10/06 04:34:07;;;;;;;2.2;1.9;;;;;;;10.81;93.54785;939.3051;;;;
2021/10/06 04:36:34;;;;;;;2;1.1;;;;;;;10.74;93.97754;939.2084;;;;
2021/10/06 04:38:59;;;;;;;2.9;2.5;;;;;;;10.74;93.96582;939.3047;;;;
2021/10/06 04:41:28;;;;;;;1.8;1.1;;;;;;;10.81;93.59375;939.3042;;;;
2021/10/06 04:47:37;;;;;;;0.8;0.8;;;;;;;10.86;92.81641;939.3963;;;;
2021/10/06 04:50:02;;;;;;;1.2;0.9;;;;;;;10.83;93.37988;939.4382;;;;
2021/10/06 04:52:28;;;;;;;3;1.9;;;;;;;10.73;93.84961;939.4664;;;;
2021/10/06 04:54:55;;;;;;;1.1;0.8;;;;;;;10.81;93.83301;939.5006;;;;
2021/10/06 04:57:19;;;;;;;1.4;0.7;;;;;;;10.83;93.50391;939.533;;;;
2021/10/06 04:59:44;;;;;;;0.5;0.5;;;;;;;10.79;93.08496;939.5275;;;;
2021/10/06 05:02:09;;;;;;;0.5;0.5;;;;;;;10.7;93.45605;939.5505;;;;
2021/10/06 05:04:34;;;;;;;1.3;0.8;;;;;;;10.78;92.70605;939.5505;;;;
2021/10/06 05:09:44;;;;;;;1.2;0.7;;;;;;;10.73;92.99512;939.6035;;;;
2021/10/06 05:12:11;;;;;;;1;1;;;;;;;10.68;94.36523;939.6809;;;;
2021/10/06 05:14:36;;;;;;;0.8;0.8;;;;;;;10.63;93.9541;939.7656;;;;
2021/10/06 05:17:03;;;;;;;1.1;0.8;;;;;;;10.68;94.2168;939.774;;;;
2021/10/06 05:19:28;;;;;;;1.8;1;;;;;;;10.7;94.30078;939.9097;;;;
2021/10/06 05:21:54;;;;;;;1;0.7;;;;;;;10.46;95.84375;939.9622;;;;
2021/10/06 05:24:19;;;;;;;1.5;1.2;;;;;;;10.42;94.95703;939.9738;;;;
2021/10/06 05:26:45;;;;;;;1.9;1.1;;;;;;;10.33;94.98242;939.9969;;;;
2021/10/06 05:29:10;;;;;;;0.9;0.9;;;;;;;10.4;94.33887;939.9214;;;;
2021/10/06 05:31:37;;;;;;;1.6;0.8;;;;;;;10.27;93.43066;939.8522;;;;
2021/10/06 05:34:02;;;;;;;1.3;0.8;;;;;;;10.37;93.25781;939.9592;;;;
2021/10/06 05:36:27;;;;;;;1.2;1;;;;;;;10.45;93.50391;939.9398;;;;
2021/10/06 05:38:52;;;;;;;1;0.9;;;;;;;10.5;93.34375;939.9158;;;;
2021/10/06 05:41:17;;;;;;;1.4;1;;;;;;;10.38;93.08887;939.9125;;;;
2021/10/06 05:43:43;;;;;;;1.5;1;;;;;;;10.42;93.05078;939.9728;;;;
2021/10/06 05:46:08;;;;;;;1;0.9;;;;;;;10.46;93.11719;939.9456;;;;
2021/10/06 05:48:33;;;;;;;1.9;1;;;;;;;10.54;93.42969;939.9752;;;;
2021/10/06 05:50:59;;;;;;;1.5;0.9;;;;;;;10.59;92.48438;940.0179;;;;
2021/10/06 05:53:25;;;;;;;0.7;0.7;;;;;;;10.64;92.1377;939.9734;;;;
2021/10/06 05:55:51;;;;;;;1.5;1;;;;;;;10.67;91.89453;940.0813;;;;
2021/10/06 05:58:18;;;;;;;0.8;0.8;;;;;;;10.71;92.20117;940.0444;;;;
2021/10/06 06:00:43;;;;;;;0.8;0.8;;;;;;;10.69;92.28711;940.0808;;;;
2021/10/06 06:03:08;;;;;;;2.9;1.2;;;;;;;10.78;92.05469;940.1694;;;;
2021/10/06 06:05:35;;;;;;;1.2;0.8;;;;;;;10.81;92.35938;940.2064;;;;
2021/10/06 06:08:00;;;;;;;0.6;0.6;;;;;;;10.8;91.60156;940.2166;;;;
2021/10/06 06:10:26;;;;;;;2;0.9;;;;;;;10.88;91.35742;940.2521;;;;
2021/10/06 06:12:51;;;;;;;1.1;1;;;;;;;10.88;91.24316;940.28;;;;
2021/10/06 06:15:18;;;;;;;1.7;1.2;;;;;;;10.93;91.11426;940.3499;;;;
2021/10/06 06:17:43;;;;;;;1.9;1.2;;;;;;;10.94;91.50684;940.4105;;;;
2021/10/06 06:20:10;;;;;;;2.9;1.2;;;;;;;10.97;91.35254;940.4116;;;;
2021/10/06 06:22:35;;;;;;;1.2;1.1;;;;;;;10.96;91.47559;940.4179;;;;
2021/10/06 06:25:00;;;;;;;2.4;1.6;;;;;;;10.82;92.39551;940.41;;;;
2021/10/06 06:27:25;;;;;;;1.7;1;;;;;;;10.78;92.63965;940.4044;;;;
2021/10/06 06:29:50;;;;;;;0.8;0.7;;;;;;;10.86;92.62012;940.447;;;;
2021/10/06 06:32:15;;;;;;;0.7;0.5;;;;;;;10.93;91.12695;940.4774;;;;
2021/10/06 06:34:42;;;;;;;1;0.6;;;;;;;10.97;90.83984;940.5774;;;;
2021/10/06 06:37:07;;;;;;;0.5;0.5;;;;;;;10.97;85.95801;940.6149;;;;
2021/10/06 06:39:33;;;;;;;0.9;0.7;;;;;;;10.93;86.29297;940.655;;;;
2021/10/06 06:41:58;;;;;;;0.7;0.5;;;;;;;10.81;85.76758;940.6548;;;;
2021/10/06 06:44:24;;;;;;;1.1;0.5;;;;;;;10.7;85.32129;940.6256;;;;
2021/10/06 06:46:49;;;;;;;0.6;0.3;;;;;;;10.7;84.7041;940.7339;;;;
2021/10/06 06:49:15;;;;;;;1;0.6;;;;;;;10.54;85.40332;940.7203;;;;
2021/10/06 06:51:41;;;;;;;2.4;0.6;;;;;;;10.49;87.64355;940.7118;;;;
2021/10/06 06:54:07;;;;;;;0.7;0.6;;;;;;;10.52;86.78125;940.6843;;;;
2021/10/06 07:00:45;;;;;;;1.1;0.7;;;;;;;10.53;88.28027;940.7537;;;;
2021/10/06 07:03:00;;;;;;;1.2;0.9;;;;;;;10.53;89.51172;940.8285;;;;
2021/10/06 07:05:25;;;;;;;1.8;0.9;;;;;;;10.36;90.78906;940.7631;;;;
2021/10/06 07:07:51;;;;;;;1.3;1;;;;;;;10.41;90.38965;940.8417;;;;
2021/10/06 07:10:17;;;;;;;0.9;0.8;;;;;;;10.5;90.66113;940.8003;;;;
2021/10/06 07:12:43;;;;;;;1.5;0.7;;;;;;;10.61;91.06055;940.8817;;;;
2021/10/06 07:15:08;;;;;;;0.6;0.6;;;;;;;10.7;91.3291;940.863;;;;
2021/10/06 07:17:33;;;;;;;0.7;0.7;;;;;;;10.8;91.58984;940.9144;;;;
2021/10/06 07:19:58;;;;;;;0.9;0.7;;;;;;;10.83;92.26953;940.9015;;;;
2021/10/06 07:22:24;;;;;;;4.4;1;;;;;;;10.76;89.48047;940.918;;;;
2021/10/06 07:24:50;;;;;;;0.5;0.4;;;;;;;10.76;87.38965;940.9617;;;;
2021/10/06 07:27:15;;;;;;;0.6;0.4;;;;;;;10.45;87.12207;941.0027;;;;
2021/10/06 07:29:41;;;;;;;1.1;0.6;;;;;;;10.3;88.47461;941.0281;;;;
2021/10/06 07:32:06;;;;;;;0.7;0.5;;;;;;;10.1;90.31348;940.9783;;;;
2021/10/06 07:34:31;;;;;;;0.4;0.3;;;;;;;10.36;90.74316;940.9812;;;;
2021/10/06 07:36:56;;;;;;;1.1;0.5;;;;;;;10.45;90.45605;940.9644;;;;
2021/10/06 07:39:21;;;;;;;1.3;0.6;;;;;;;10.39;89.49512;941.0444;;;;
2021/10/06 07:41:50;;;;;;;1.7;0.5;;;;;;;10.38;90.04102;941.0275;;;;
2021/10/06 07:44:15;;;;;;;1.1;0.7;;;;;;;10.36;89.3623;940.9191;;;;
2021/10/06 07:46:42;;;;;;;1;0.7;;;;;;;10.51;89.21094;940.9716;;;;
2021/10/06 07:49:06;;;;;;;1.3;0.7;;;;;;;10.62;90.4668;940.9989;;;;
2021/10/06 07:51:31;;;;;;;1;0.8;;;;;;;10.61;89.01465;941.0334;;;;
2021/10/06 07:53:56;;;;;;;1.4;0.9;;;;;;;10.27;88.50098;941.0173;;;;
2021/10/06 07:56:23;;;;;;;0.9;0.8;;;;;;;10.29;90.13477;941.1209;;;;
2021/10/06 07:58:46;;;;;;;1.6;0.8;;;;;;;10.48;90.30176;941.132;;;;
2021/10/06 08:01:11;;;;;;;1.8;1;;;;;;;10.53;89.75391;941.1892;;;;
2021/10/06 08:03:36;;;;;;;0.7;0.5;;;;;;;10.32;89.60742;941.2147;;;;
2021/10/06 08:06:01;;;;;;;1;0.6;;;;;;;10.49;90.30371;941.2635;;;;
2021/10/06 08:08:28;;;;;;;0.7;0.6;;;;;;;10.41;89.9209;941.2947;;;;
2021/10/06 08:10:51;;;;;;;0.6;0.6;;;;;;;10.36;90.20703;941.2891;;;;
2021/10/06 08:13:17;;;;;;;1.2;0.7;;;;;;;10.31;89.45605;941.3983;;;;
2021/10/06 08:15:42;;;;;;;0.5;0.5;;;;;;;10.3;88.56543;941.4054;;;;
2021/10/06 08:18:16;;;;;;;0.7;0.5;;;;;;;10.07;89.28125;941.4838;;;;
2021/10/06 08:20:48;;;;;;;1.1;0.6;;;;;;;9.98;90.05957;941.4971;;;;
2021/10/06 08:23:15;;;;;;;0.5;0.5;;;;;;;10.05;90.95215;941.5829;;;;
2021/10/06 08:25:39;;;;;;;1.3;0.5;;;;;;;10.04;89.63867;941.5725;;;;
2021/10/06 08:28:07;;;;;;;0.9;0.5;;;;;;;10.15;90.1543;941.637;;;;
2021/10/06 08:30:32;;;;;;;0.6;0.4;;;;;;;10.09;88.96387;941.5987;;;;
2021/10/06 08:32:58;;;;;;;0.5;0.4;;;;;;;9.9;89.38281;941.5961;;;;
2021/10/06 08:35:24;;;;;;;0.6;0.4;;;;;;;9.75;91.76758;941.6855;;;;
2021/10/06 08:37:50;;;;;;;0.6;0.4;;;;;;;10.01;88.85645;941.7141;;;;
2021/10/06 08:40:15;;;;;;;1.2;0.6;;;;;;;10.11;89.45996;941.7589;;;;
2021/10/06 08:42:41;;;;;;;0.8;0.5;;;;;;;10.13;88.94141;941.718;;;;
2021/10/06 08:45:07;;;;;;;1.1;0.7;;;;;;;10.07;87.95801;941.7185;;;;
2021/10/06 08:47:32;;;;;;;0.8;0.7;;;;;;;10.13;88.68848;941.6853;;;;
2021/10/06 08:49:57;;;;;;;0.7;0.7;;;;;;;10.31;89.125;941.7247;;;;
2021/10/06 08:52:22;;;;;;;0.6;0.6;;;;;;;10.05;85.33008;941.6721;;;;
2021/10/06 08:54:48;;;;;;;0.6;0.5;;;;;;;9.92;85.13379;941.7753;;;;
2021/10/06 08:57:16;;;;;;;1.1;0.5;;;;;;;10.28;85.59277;941.7791;;;;
2021/10/06 08:59:38;;;;;;;0.4;0.4;;;;;;;10.2;84.99512;941.7517;;;;
2021/10/06 09:02:06;;;;;;;0.7;0.6;;;;;;;9.88;86.3125;941.7342;;;;
2021/10/06 09:04:31;;;;;;;0.7;0.4;;;;;;;9.9;85.42676;941.8148;;;;
2021/10/06 09:06:56;;;;;;;0.7;0.5;;;;;;;10.36;86.52051;941.8193;;;;
2021/10/06 09:09:21;;;;;;;0.7;0.7;;;;;;;10.63;84.94336;941.8264;;;;
2021/10/06 09:11:46;;;;;;;0.8;0.6;;;;;;;11.07;82.55957;941.7933;;;;
2021/10/06 09:14:17;;;;;;;1.2;0.6;;;;;;;11.48;81.5498;941.814;;;;
2021/10/06 09:16:42;;;;;;;0.7;0.7;;;;;;;11.36;78.74902;941.81;;;;
2021/10/06 09:19:07;;;;;;;0.8;0.7;;;;;;;11.65;78.0918;941.8689;;;;
2021/10/06 09:21:32;;;;;;;0.8;0.7;;;;;;;11.99;76.60547;941.8865;;;;
2021/10/06 09:23:57;;;;;;;2.2;0.5;;;;;;;12.45;79.79492;941.8683;;;;
2021/10/06 09:26:22;;;;;;;0.4;0.4;;;;;;;12.7;74.71191;941.8153;;;;
2021/10/06 09:28:50;;;;;;;0.3;0.3;;;;;;;12.27;76.79297;941.8674;;;;
2021/10/06 09:31:14;;;;;;;0.4;0.4;;;;;;;12.26;72.17188;941.7883;;;;
2021/10/06 09:33:40;;;;;;;0.6;0.6;;;;;;;12.33;72.90625;941.8104;;;;
2021/10/06 09:36:05;;;;;;;0.4;0.4;;;;;;;12.24;75.11426;941.764;;;;
2021/10/06 09:38:30;;;;;;;0.7;0.5;;;;;;;12.44;76.88086;941.7308;;;;
2021/10/06 09:40:55;;;;;;;0.4;0.4;;;;;;;12.97;75.55078;941.8198;;;;
2021/10/06 09:43:22;;;;;;;0.9;0.7;;;;;;;13.32;73.50977;941.7625;;;;
2021/10/06 09:45:48;;;;;;;0.7;0.5;;;;;;;13.42;70.88086;941.7776;;;;
2021/10/06 09:48:13;;;;;;;0.7;0.6;;;;;;;12.89;72.94141;941.8505;;;;
2021/10/06 09:50:38;;;;;;;0.6;0.5;;;;;;;12.46;69.55664;941.8061;;;;
2021/10/06 09:53:03;;;;;;;0.5;0.5;;;;;;;12.73;71.76953;941.7389;;;;
2021/10/06 09:55:28;;;;;;;1.1;0.6;;;;;;;13.01;72.56152;941.65;;;;
2021/10/06 09:57:54;;;;;;;0.7;0.7;;;;;;;13.3;70.48438;941.748;;;;
2021/10/06 10:00:21;;;;;;;1.5;1;;;;;;;13.62;72.08594;941.7914;;;;
2021/10/06 10:02:45;;;;;;;1.1;1;;;;;;;12.95;70.4502;941.8189;;;;
2021/10/06 10:05:11;;;;;;;1.3;1.1;;;;;;;12.38;74.56641;941.7924;;;;
2021/10/06 10:07:36;;;;;;;2.5;1;;;;;;;11.97;75.20508;941.7403;;;;
2021/10/06 10:10:01;;;;;;;0.6;0.6;;;;;;;12.25;77.28223;941.6939;;;;
2021/10/06 10:12:34;;;;;;;2.6;1.7;;;;;;;12.4;79.23633;941.7606;;;;
2021/10/06 10:15:00;;;;;;;1;0.9;;;;;;;12.51;77.67285;941.6644;;;;
2021/10/06 10:17:24;;;;;;;1.3;1.1;;;;;;;12.5;77.53223;941.7266;;;;
2021/10/06 10:19:49;;;;;;;2;1.6;;;;;;;13.08;77.55664;941.6856;;;;
2021/10/06 10:22:14;;;;;;;0.7;0.7;;;;;;;13.38;73.48535;941.5908;;;;
2021/10/06 10:24:41;;;;;;;0.4;0.4;;;;;;;13.48;72.03125;941.6194;;;;
2021/10/06 10:27:06;;;;;;;0.6;0.5;;;;;;;13.32;71.50879;941.6289;;;;
2021/10/06 10:29:33;;;;;;;0.8;0.7;;;;;;;13.63;68.91699;941.5627;;;;
2021/10/06 10:31:58;;;;;;;1.8;0.6;;;;;;;13.86;67.19043;941.5698;;;;
2021/10/06 10:34:24;;;;;;;0.9;0.5;;;;;;;13.89;70.18848;941.5427;;;;
2021/10/06 10:36:50;;;;;;;2.8;0.5;;;;;;;13.47;68.51172;941.5195;;;;
2021/10/06 10:39:14;;;;;;;1;0.5;;;;;;;13.55;66.05078;941.5956;;;;
2021/10/06 10:41:39;;;;;;;0.4;0.4;;;;;;;13.76;64.73828;941.5302;;;;
2021/10/06 10:44:04;;;;;;;0.4;0.4;;;;;;;13.67;65.83887;941.6868;;;;
2021/10/06 10:46:29;;;;;;;1.2;0.6;;;;;;;13.62;66.0166;941.6883;;;;
2021/10/06 10:48:54;;;;;;;0.7;0.3;;;;;;;13.44;62.11523;941.5881;;;;
2021/10/06 10:51:20;;;;;;;0.1;0.1;;;;;;;13.44;63.19531;941.5833;;;;
2021/10/06 10:53:47;;;;;;;0.1;0.1;;;;;;;13.61;60.89648;941.5438;;;;
2021/10/06 10:56:12;;;;;;;0.5;0.2;;;;;;;13.89;63.58301;941.4988;;;;
2021/10/06 10:58:37;;;;;;;0.7;0.3;;;;;;;14.04;63.36426;941.5681;;;;
2021/10/06 11:01:03;;;;;;;0.4;0.3;;;;;;;14.25;62.70313;941.5662;;;;
2021/10/06 11:03:28;;;;;;;0.2;0.2;;;;;;;14.46;60.70508;941.4883;;;;
2021/10/06 11:05:57;;;;;;;0.3;0.3;;;;;;;14.61;59.44629;941.3744;;;;
2021/10/06 11:08:22;;;;;;;1.2;0.4;;;;;;;13.82;62.21582;941.4378;;;;
2021/10/06 11:10:47;;;;;;;0.7;0.7;;;;;;;13.79;64.69629;941.455;;;;
2021/10/06 11:13:12;;;;;;;0.4;0.4;;;;;;;14.02;66.14551;941.4816;;;;
2021/10/06 11:15:38;;;;;;;1.3;0.6;;;;;;;13.99;65.09375;941.47;;;;
2021/10/06 11:18:03;;;;;;;0.8;0.4;;;;;;;14.28;70.30859;941.5078;;;;
2021/10/06 11:20:28;;;;;;;0.4;0.4;;;;;;;14.45;64.51758;941.4426;;;;
2021/10/06 11:22:53;;;;;;;0.2;0.2;;;;;;;14.34;64.83594;941.5061;;;;
2021/10/06 11:25:18;;;;;;;0.2;0.2;;;;;;;14.55;60.37109;941.4266;;;;
2021/10/06 11:27:44;;;;;;;0.2;0.2;;;;;;;14.91;61.72559;941.4442;;;;
2021/10/06 11:30:12;;;;;;;0.4;0.2;;;;;;;15.2;59.48047;941.2866;;;;
2021/10/06 11:32:37;;;;;;;0.3;0.3;;;;;;;15.83;57.78711;941.3669;;;;
2021/10/06 11:35:02;;;;;;;0.5;0.5;;;;;;;15.84;59.2793;941.3564;;;;
2021/10/06 11:37:27;;;;;;;0.3;0.2;;;;;;;15.68;57.32813;941.4052;;;;
2021/10/06 11:39:55;;;;;;;0.3;0.2;;;;;;;16.8;58.37793;941.3513;;;;
2021/10/06 11:42:20;;;;;;;0.7;0.4;;;;;;;17.48;54.5127;941.2703;;;;
2021/10/06 11:44:45;;;;;;;1.6;0.3;;;;;;;17.61;53.55469;941.2444;;;;
2021/10/06 11:47:10;;;;;;;0.3;0.3;;;;;;;17.28;51.3457;941.1395;;;;
2021/10/06 11:49:35;;;;;;;0.6;0.3;;;;;;;17.67;49.63867;941.1384;;;;
2021/10/06 11:52:00;;;;;;;0.2;0.2;;;;;;;18.03;49.65527;941.1078;;;;
2021/10/06 11:54:26;;;;;;;0.3;0.3;;;;;;;18.69;48.23047;941.1217;;;;
2021/10/06 11:56:57;;;;;;;0.2;0.2;;;;;;;19.21;46.85449;941.0919;;;;
2021/10/06 11:59:22;;;;;;;0.4;0.3;;;;;;;19.42;50.41895;941.1609;;;;
2021/10/06 12:01:47;;;;;;;1;0.3;;;;;;;18.09;57.3418;941.1439;;;;
2021/10/06 12:04:12;;;;;;;0.3;0.3;;;;;;;18.48;53.9043;941.0408;;;;
2021/10/06 12:06:37;;;;;;;1.1;0.6;;;;;;;19.13;51.34082;941.0555;;;;
2021/10/06 12:09:08;;;;;;;0.4;0.4;;;;;;;19.27;50.39063;941.0524;;;;
2021/10/06 12:11:27;;;;;;;0.4;0.4;;;;;;;19.71;47.46582;941.0717;;;;
2021/10/06 12:13:53;;;;;;;0.8;0.3;;;;;;;19.55;49.64063;940.9867;;;;
2021/10/06 12:16:24;;;;;;;0.3;0.2;;;;;;;19.19;51.08008;940.968;;;;
2021/10/06 12:18:54;;;;;;;0.3;0.3;;;;;;;19.14;50.81738;941.0117;;;;
2021/10/06 12:21:19;;;;;;;0.8;0.3;;;;;;;18.05;53.94531;941.0486;;;;
2021/10/06 12:23:44;;;;;;;0.4;0.4;;;;;;;17.27;55.25195;941.0439;;;;
2021/10/06 12:26:09;;;;;;;0.5;0.4;;;;;;;16.49;57.06445;941.0705;;;;
2021/10/06 12:28:35;;;;;;;0.5;0.3;;;;;;;15.94;59.96191;941.0779;;;;
2021/10/06 12:31:00;;;;;;;0.7;0.4;;;;;;;15.71;60.86719;941.0742;;;;
2021/10/06 12:33:25;;;;;;;0.3;0.3;;;;;;;15.27;62.22656;941.0274;;;;
2021/10/06 12:35:55;;;;;;;0.4;0.4;;;;;;;15.23;60.73047;941.0341;;;;
2021/10/06 12:38:19;;;;;;;0.3;0.3;;;;;;;14.69;63.35449;941.0019;;;;
2021/10/06 12:40:44;;;;;;;0.6;0.4;;;;;;;14.57;68.17773;941.033;;;;
2021/10/06 12:43:09;;;;;;;0.6;0.4;;;;;;;13.87;73.1748;941.028;;;;
2021/10/06 12:45:34;;;;;;;0.9;0.6;;;;;;;13.09;76.46777;941.0388;;;;
2021/10/06 12:47:59;;;;;;;1.5;0.5;;;;;;;12.97;76.97461;941.0772;;;;
2021/10/06 12:50:27;;;;;;;1.2;0.5;;;;;;;13.08;73.28418;941.1188;;;;
2021/10/06 12:52:53;;;;;;;0.4;0.4;;;;;;;13.18;72.26758;941.0914;;;;
2021/10/06 12:55:21;;;;;;;1.1;0.6;;;;;;;13.23;74.50488;941.1687;;;;
2021/10/06 12:57:45;;;;;;;3.5;2.4;;;;;;;13.6;76.26855;941.1758;;;;
2021/10/06 13:00:12;;;;;;;11.9;8.4;;;;;;;14.85;73.80371;941.1774;;;;
2021/10/06 13:02:39;;;;;;;8.9;6.5;;;;;;;17.92;61.09375;941.0583;;;;
2021/10/06 13:05:02;;;;;;;0.7;0.6;;;;;;;17.93;51.22363;940.9928;;;;
2021/10/06 13:07:28;;;;;;;2;1.1;;;;;;;18.01;50.16504;940.9691;;;;
2021/10/06 13:09:53;;;;;;;0.8;0.6;;;;;;;19.8;49.6582;940.9953;;;;
2021/10/06 13:14:43;;;;;;;0.8;0.5;;;;;;;23.01;39.93945;941.0598;;;;
2021/10/06 13:17:08;;;;;;;0.6;0.5;;;;;;;22.99;41.24121;941.0939;;;;
2021/10/06 13:19:33;;;;;;;0.5;0.5;;;;;;;24.94;38.16602;941.1198;;;;
2021/10/06 13:21:58;;;;;;;0.9;0.4;;;;;;;24.12;37.24805;941.165;;;;
2021/10/06 13:24:24;;;;;;;1;0.3;;;;;;;22.83;38.40918;941.114;;;;
2021/10/06 13:26:49;;;;;;;1.9;1.3;;;;;;;20.95;46.93457;941.1609;;;;
2021/10/06 13:29:15;;;;;;;1.9;0.8;;;;;;;20.16;46.58203;941.1141;;;;
2021/10/06 13:31:40;;;;;;;0.8;0.7;;;;;;;20.44;45.26758;941.1495;;;;
2021/10/06 13:34:07;;;;;;;0.5;0.5;;;;;;;19.98;45.71094;941.0709;;;;
2021/10/06 13:36:32;;;;;;;1;0.6;;;;;;;19.7;50.82422;941.2609;;;;
2021/10/06 13:38:57;;;;;;;2.7;1.7;;;;;;;19.06;52.53125;941.1675;;;;
2021/10/06 13:41:23;;;;;;;1.3;1.2;;;;;;;18.29;55.57813;941.2596;;;;
2021/10/06 13:44:06;;;;;;;1;0.8;;;;;;;17.9;52.70605;941.185;;;;
2021/10/06 13:46:31;;;;;;;0.2;0.2;;;;;;;16.52;51.31445;941.1651;;;;
2021/10/06 13:48:56;;;;;;;0.3;0.3;;;;;;;15.6;51.89941;941.0489;;;;
2021/10/06 13:51:21;;;;;;;0.7;0.4;;;;;;;14.59;60.74609;941.1083;;;;
2021/10/06 13:53:47;;;;;;;1.7;0.4;;;;;;;14.46;62.08691;941.1365;;;;
2021/10/06 13:56:11;;;;;;;0.7;0.3;;;;;;;14.76;62.08398;941.2197;;;;
2021/10/06 13:58:37;;;;;;;0.8;0.5;;;;;;;14.98;59.39258;941.2211;;;;
2021/10/06 14:01:20;;;;;;;0.8;0.5;;;;;;;15.09;60.55078;941.1914;;;;
2021/10/06 14:04:27;;;;;;;0.8;0.6;;;;;;;14.52;64.77051;941.2511;;;;
2021/10/06 14:06:33;;;;;;;0.5;0.5;;;;;;;14.65;63.65918;941.3322;;;;
2021/10/06 14:08:58;;;;;;;0.8;0.5;;;;;;;14.4;64.58984;941.3915;;;;
2021/10/06 14:11:23;;;;;;;1.5;0.8;;;;;;;14.11;65.7002;941.3408;;;;
2021/10/06 14:14:37;;;;;;;2;1.3;;;;;;;13.94;70.05762;941.4395;;;;
2021/10/06 14:17:06;;;;;;;1.4;1.1;;;;;;;14;68.99707;941.4444;;;;
2021/10/06 14:19:32;;;;;;;1.4;1;;;;;;;13.97;72.88281;941.4211;;;;
2021/10/06 14:21:58;;;;;;;1.5;1.2;;;;;;;13.64;75.32227;941.4442;;;;
2021/10/06 14:24:23;;;;;;;2.9;1.1;;;;;;;13.48;71.51172;941.413;;;;
2021/10/06 14:26:50;;;;;;;1.3;1;;;;;;;13.46;74.56641;941.4514;;;;
2021/10/06 14:29:15;;;;;;;11.2;5.9;;;;;;;13.31;69.32324;941.4705;;;;
2021/10/06 14:31:42;;;;;;;5.7;3.3;;;;;;;13.45;66.94434;941.4761;;;;
2021/10/06 14:34:08;;;;;;;5.4;2.9;;;;;;;13.45;69.19727;941.4745;;;;
2021/10/06 14:36:36;;;;;;;1.9;1.2;;;;;;;13.21;67.90723;941.5212;;;;
2021/10/06 14:39:00;;;;;;;1.8;1.1;;;;;;;13.43;70.1709;941.5248;;;;
2021/10/06 14:41:25;;;;;;;1.5;0.9;;;;;;;13.07;74.83301;941.4944;;;;
2021/10/06 14:43:51;;;;;;;2.9;1.9;;;;;;;12.92;73.9248;941.5558;;;;
2021/10/06 14:46:24;;;;;;;17;8.6;;;;;;;13.1;74.18457;941.5098;;;;
2021/10/06 14:48:41;;;;;;;2.8;1.5;;;;;;;13.22;73.29688;941.611;;;;
2021/10/06 14:51:06;;;;;;;1.2;0.8;;;;;;;13.27;71.41895;941.6671;;;;
2021/10/06 14:53:33;;;;;;;2.3;1;;;;;;;13.38;72.69141;941.6676;;;;
2021/10/06 14:55:58;;;;;;;2.6;1.4;;;;;;;13.4;75.10742;941.7004;;;;
2021/10/06 14:58:24;;;;;;;1.2;0.7;;;;;;;13.52;72.77246;941.7244;;;;
2021/10/06 15:00:49;;;;;;;5.8;3.9;;;;;;;13.4;72.5791;941.7733;;;;
2021/10/06 15:03:15;;;;;;;11.5;6.4;;;;;;;13.29;75.59473;941.7879;;;;
2021/10/06 15:05:40;;;;;;;4.9;2.2;;;;;;;13.13;76.84277;941.7866;;;;
2021/10/06 15:08:08;;;;;;;7.2;4.5;;;;;;;13.28;76.26074;941.9015;;;;
2021/10/06 15:10:37;;;;;;;5;3.1;;;;;;;13.47;71.83203;941.853;;;;
2021/10/06 15:12:58;;;;;;;5;3.1;;;;;;;13.7;70.14453;941.8757;;;;
2021/10/06 15:15:26;;;;;;;1.7;1.3;;;;;;;13.73;69.33398;941.875;;;;
2021/10/06 15:17:51;;;;;;;1.2;0.9;;;;;;;13.7;68.58203;941.8582;;;;
2021/10/06 15:20:17;;;;;;;1.6;1;;;;;;;13.67;71.76367;941.8764;;;;
2021/10/06 15:22:42;;;;;;;1.6;0.8;;;;;;;13.55;71.33984;941.8373;;;;
2021/10/06 15:25:07;;;;;;;1;0.8;;;;;;;13.64;70.14746;941.89;;;;
2021/10/06 15:27:32;;;;;;;1.6;1;;;;;;;13.53;71.08398;941.97;;;;
2021/10/06 15:29:57;;;;;;;1.6;0.9;;;;;;;13.48;70.22461;941.9442;;;;
2021/10/06 15:32:22;;;;;;;0.6;0.6;;;;;;;13.4;70.82227;942.0349;;;;
2021/10/06 15:34:47;;;;;;;1.3;0.8;;;;;;;13.23;72.4375;942.0764;;;;
2021/10/06 15:37:13;;;;;;;1.5;1.2;;;;;;;12.97;76.1709;942.1755;;;;
2021/10/06 15:39:38;;;;;;;2.5;1.4;;;;;;;13.04;74.85156;942.2003;;;;
2021/10/06 15:42:03;;;;;;;3.7;2.2;;;;;;;12.83;74.12598;942.1841;;;;
2021/10/06 15:44:28;;;;;;;11.7;7;;;;;;;12.69;75.05469;942.1437;;;;
2021/10/06 15:46:53;;;;;;;7;4.5;;;;;;;12.53;76.50488;942.1989;;;;